sensor_id;sensor_type;location;lat;lon;timestamp;P1;durP1;ratioP1;P2;durP2;ratioP2
52934;SDS011;38802;50.198;19.796;2023-07-16T00:00:43;4.80;;;4.30;;
52934;SDS011;38802;50.198;19.796;2023-07-16T00:03:30;4.90;;;4.20;;
52934;SDS011;38802;50.198;19.796;2023-07-16T00:05:58;4.70;;;4.10;;
52934;SDS011;38802;50.198;19.796;2023-07-16T00:08:27;5.40;;;3.90;;
52934;SDS011;38802;50.198;19.796;2023-07-16T00:10:55;5.80;;;4.50;;
52934;SDS011;38802;50.198;19.796;2023-07-16T00:13:23;5.30;;;3.80;;
52934;SDS011;38802;50.198;19.796;2023-07-16T00:15:51;8.60;;;3.70;;
52934;SDS011;38802;50.198;19.796;2023-07-16T00:18:20;4.90;;;4.50;;
52934;SDS011;38802;50.198;19.796;2023-07-16T00:20:47;7.30;;;5.00;;
52934;SDS011;38802;50.198;19.796;2023-07-16T00:23:15;4.50;;;4.10;;
52934;SDS011;38802;50.198;19.796;2023-07-16T00:25:43;4.80;;;3.80;;
52934;SDS011;38802;50.198;19.796;2023-07-16T00:28:11;4.70;;;4.30;;
52934;SDS011;38802;50.198;19.796;2023-07-16T00:30:40;7.10;;;4.20;;
52934;SDS011;38802;50.198;19.796;2023-07-16T00:33:08;4.50;;;3.70;;
52934;SDS011;38802;50.198;19.796;2023-07-16T00:35:36;4.00;;;3.50;;
52934;SDS011;38802;50.198;19.796;2023-07-16T00:38:04;6.90;;;4.20;;
52934;SDS011;38802;50.198;19.796;2023-07-16T00:40:32;5.80;;;4.30;;
52934;SDS011;38802;50.198;19.796;2023-07-16T00:43:00;4.20;;;3.70;;
52934;SDS011;38802;50.198;19.796;2023-07-16T00:45:28;5.20;;;3.90;;
52934;SDS011;38802;50.198;19.796;2023-07-16T00:47:58;4.50;;;3.70;;
52934;SDS011;38802;50.198;19.796;2023-07-16T00:50:26;4.50;;;3.90;;
52934;SDS011;38802;50.198;19.796;2023-07-16T00:52:55;4.20;;;3.80;;
52934;SDS011;38802;50.198;19.796;2023-07-16T00:55:23;4.40;;;4.00;;
52934;SDS011;38802;50.198;19.796;2023-07-16T00:57:51;5.00;;;4.10;;
52934;SDS011;38802;50.198;19.796;2023-07-16T01:00:21;4.20;;;3.70;;
52934;SDS011;38802;50.198;19.796;2023-07-16T01:02:49;4.40;;;3.60;;
52934;SDS011;38802;50.198;19.796;2023-07-16T01:05:17;4.40;;;4.00;;
52934;SDS011;38802;50.198;19.796;2023-07-16T01:07:48;5.00;;;4.40;;
52934;SDS011;38802;50.198;19.796;2023-07-16T01:10:22;4.80;;;4.40;;
52934;SDS011;38802;50.198;19.796;2023-07-16T01:12:53;4.70;;;4.30;;
52934;SDS011;38802;50.198;19.796;2023-07-16T01:15:23;7.40;;;4.30;;
52934;SDS011;38802;50.198;19.796;2023-07-16T01:17:51;5.40;;;4.00;;
52934;SDS011;38802;50.198;19.796;2023-07-16T01:20:19;6.90;;;4.00;;
52934;SDS011;38802;50.198;19.796;2023-07-16T01:25:56;6.20;;;4.00;;
52934;SDS011;38802;50.198;19.796;2023-07-16T01:31:26;7.60;;;4.70;;
52934;SDS011;38802;50.198;19.796;2023-07-16T01:33:55;4.80;;;4.40;;
52934;SDS011;38802;50.198;19.796;2023-07-16T01:36:24;5.90;;;4.70;;
52934;SDS011;38802;50.198;19.796;2023-07-16T01:38:52;5.60;;;5.00;;
52934;SDS011;38802;50.198;19.796;2023-07-16T01:41:20;7.10;;;4.50;;
52934;SDS011;38802;50.198;19.796;2023-07-16T01:43:48;5.30;;;4.90;;
52934;SDS011;38802;50.198;19.796;2023-07-16T01:46:17;5.10;;;4.60;;
52934;SDS011;38802;50.198;19.796;2023-07-16T01:48:46;5.80;;;5.20;;
52934;SDS011;38802;50.198;19.796;2023-07-16T01:51:14;6.90;;;4.70;;
52934;SDS011;38802;50.198;19.796;2023-07-16T01:53:42;5.40;;;4.90;;
52934;SDS011;38802;50.198;19.796;2023-07-16T01:56:10;5.70;;;4.50;;
52934;SDS011;38802;50.198;19.796;2023-07-16T01:58:40;5.20;;;4.80;;
52934;SDS011;38802;50.198;19.796;2023-07-16T02:01:08;4.80;;;4.30;;
52934;SDS011;38802;50.198;19.796;2023-07-16T02:03:36;5.20;;;4.80;;
52934;SDS011;38802;50.198;19.796;2023-07-16T02:06:05;4.80;;;4.40;;
52934;SDS011;38802;50.198;19.796;2023-07-16T02:08:34;6.90;;;5.30;;
52934;SDS011;38802;50.198;19.796;2023-07-16T02:11:03;5.70;;;5.10;;
52934;SDS011;38802;50.198;19.796;2023-07-16T02:13:31;5.20;;;4.70;;
52934;SDS011;38802;50.198;19.796;2023-07-16T02:15:59;5.20;;;4.70;;
52934;SDS011;38802;50.198;19.796;2023-07-16T02:18:27;6.40;;;4.10;;
52934;SDS011;38802;50.198;19.796;2023-07-16T02:20:55;5.10;;;4.60;;
52934;SDS011;38802;50.198;19.796;2023-07-16T02:23:23;4.60;;;4.20;;
52934;SDS011;38802;50.198;19.796;2023-07-16T02:25:53;4.60;;;4.20;;
52934;SDS011;38802;50.198;19.796;2023-07-16T02:28:21;5.90;;;4.70;;
52934;SDS011;38802;50.198;19.796;2023-07-16T02:30:49;5.20;;;4.70;;
52934;SDS011;38802;50.198;19.796;2023-07-16T02:33:18;5.40;;;4.30;;
52934;SDS011;38802;50.198;19.796;2023-07-16T02:35:46;5.20;;;4.40;;
52934;SDS011;38802;50.198;19.796;2023-07-16T02:38:16;4.40;;;4.00;;
52934;SDS011;38802;50.198;19.796;2023-07-16T02:40:44;5.90;;;4.50;;
52934;SDS011;38802;50.198;19.796;2023-07-16T02:43:13;5.10;;;4.30;;
52934;SDS011;38802;50.198;19.796;2023-07-16T02:45:41;4.80;;;4.40;;
52934;SDS011;38802;50.198;19.796;2023-07-16T02:48:09;5.40;;;4.70;;
52934;SDS011;38802;50.198;19.796;2023-07-16T02:50:37;4.90;;;4.40;;
52934;SDS011;38802;50.198;19.796;2023-07-16T02:53:06;4.50;;;4.10;;
52934;SDS011;38802;50.198;19.796;2023-07-16T02:55:35;6.00;;;5.20;;
52934;SDS011;38802;50.198;19.796;2023-07-16T02:58:03;5.40;;;4.30;;
52934;SDS011;38802;50.198;19.796;2023-07-16T03:00:34;5.70;;;4.50;;
52934;SDS011;38802;50.198;19.796;2023-07-16T03:03:02;6.70;;;4.60;;
52934;SDS011;38802;50.198;19.796;2023-07-16T03:05:30;5.20;;;4.70;;
52934;SDS011;38802;50.198;19.796;2023-07-16T03:07:58;5.30;;;4.80;;
52934;SDS011;38802;50.198;19.796;2023-07-16T03:10:26;5.10;;;4.60;;
52934;SDS011;38802;50.198;19.796;2023-07-16T03:12:55;8.00;;;4.70;;
52934;SDS011;38802;50.198;19.796;2023-07-16T03:15:23;4.50;;;4.10;;
52934;SDS011;38802;50.198;19.796;2023-07-16T03:17:51;4.60;;;4.20;;
52934;SDS011;38802;50.198;19.796;2023-07-16T03:20:20;4.90;;;4.50;;
52934;SDS011;38802;50.198;19.796;2023-07-16T03:22:48;8.30;;;4.20;;
52934;SDS011;38802;50.198;19.796;2023-07-16T03:25:16;7.20;;;4.40;;
52934;SDS011;38802;50.198;19.796;2023-07-16T03:27:45;6.50;;;4.20;;
52934;SDS011;38802;50.198;19.796;2023-07-16T03:30:13;7.40;;;4.50;;
52934;SDS011;38802;50.198;19.796;2023-07-16T03:32:41;4.70;;;4.30;;
52934;SDS011;38802;50.198;19.796;2023-07-16T03:35:19;4.60;;;4.20;;
52934;SDS011;38802;50.198;19.796;2023-07-16T03:37:51;4.50;;;4.10;;
52934;SDS011;38802;50.198;19.796;2023-07-16T03:40:23;4.40;;;4.00;;
52934;SDS011;38802;50.198;19.796;2023-07-16T03:42:53;4.30;;;3.90;;
52934;SDS011;38802;50.198;19.796;2023-07-16T03:45:23;6.20;;;4.30;;
52934;SDS011;38802;50.198;19.796;2023-07-16T03:47:51;7.20;;;3.80;;
52934;SDS011;38802;50.198;19.796;2023-07-16T03:50:20;4.20;;;3.90;;
52934;SDS011;38802;50.198;19.796;2023-07-16T03:52:48;5.40;;;3.90;;
52934;SDS011;38802;50.198;19.796;2023-07-16T03:55:16;6.40;;;4.40;;
52934;SDS011;38802;50.198;19.796;2023-07-16T03:57:45;4.20;;;3.80;;
52934;SDS011;38802;50.198;19.796;2023-07-16T04:00:13;6.70;;;4.50;;
52934;SDS011;38802;50.198;19.796;2023-07-16T04:02:41;5.80;;;3.90;;
52934;SDS011;38802;50.198;19.796;2023-07-16T04:05:15;4.20;;;3.80;;
52934;SDS011;38802;50.198;19.796;2023-07-16T04:07:43;4.20;;;3.80;;
52934;SDS011;38802;50.198;19.796;2023-07-16T04:10:11;4.30;;;4.00;;
52934;SDS011;38802;50.198;19.796;2023-07-16T04:12:39;4.80;;;3.90;;
52934;SDS011;38802;50.198;19.796;2023-07-16T04:15:07;4.50;;;4.10;;
52934;SDS011;38802;50.198;19.796;2023-07-16T04:17:38;6.90;;;4.00;;
52934;SDS011;38802;50.198;19.796;2023-07-16T04:20:06;5.60;;;4.00;;
52934;SDS011;38802;50.198;19.796;2023-07-16T04:22:34;8.10;;;4.10;;
52934;SDS011;38802;50.198;19.796;2023-07-16T04:25:03;5.10;;;4.20;;
52934;SDS011;38802;50.198;19.796;2023-07-16T04:27:32;4.90;;;4.50;;
52934;SDS011;38802;50.198;19.796;2023-07-16T04:30:00;5.70;;;4.00;;
52934;SDS011;38802;50.198;19.796;2023-07-16T04:32:28;4.40;;;4.10;;
52934;SDS011;38802;50.198;19.796;2023-07-16T04:34:56;6.00;;;4.10;;
52934;SDS011;38802;50.198;19.796;2023-07-16T04:37:24;4.70;;;4.10;;
52934;SDS011;38802;50.198;19.796;2023-07-16T04:39:52;10.40;;;4.10;;
52934;SDS011;38802;50.198;19.796;2023-07-16T04:42:20;6.60;;;4.10;;
52934;SDS011;38802;50.198;19.796;2023-07-16T04:44:48;5.00;;;4.30;;
52934;SDS011;38802;50.198;19.796;2023-07-16T04:47:16;6.90;;;4.10;;
52934;SDS011;38802;50.198;19.796;2023-07-16T04:49:44;4.60;;;4.10;;
52934;SDS011;38802;50.198;19.796;2023-07-16T04:52:12;5.30;;;4.20;;
52934;SDS011;38802;50.198;19.796;2023-07-16T04:54:41;4.30;;;3.90;;
52934;SDS011;38802;50.198;19.796;2023-07-16T04:57:09;4.90;;;4.10;;
52934;SDS011;38802;50.198;19.796;2023-07-16T04:59:37;8.90;;;4.60;;
52934;SDS011;38802;50.198;19.796;2023-07-16T05:02:05;4.20;;;3.80;;
52934;SDS011;38802;50.198;19.796;2023-07-16T05:04:34;4.00;;;3.60;;
52934;SDS011;38802;50.198;19.796;2023-07-16T05:07:03;6.30;;;4.20;;
52934;SDS011;38802;50.198;19.796;2023-07-16T05:09:31;5.30;;;3.60;;
52934;SDS011;38802;50.198;19.796;2023-07-16T05:11:59;3.90;;;3.50;;
52934;SDS011;38802;50.198;19.796;2023-07-16T05:14:28;5.30;;;3.90;;
52934;SDS011;38802;50.198;19.796;2023-07-16T05:16:56;5.40;;;3.80;;
52934;SDS011;38802;50.198;19.796;2023-07-16T05:19:24;5.20;;;3.60;;
52934;SDS011;38802;50.198;19.796;2023-07-16T05:21:52;3.80;;;3.40;;
52934;SDS011;38802;50.198;19.796;2023-07-16T05:24:20;4.10;;;3.40;;
52934;SDS011;38802;50.198;19.796;2023-07-16T05:26:48;3.70;;;3.40;;
52934;SDS011;38802;50.198;19.796;2023-07-16T05:29:17;4.40;;;3.60;;
52934;SDS011;38802;50.198;19.796;2023-07-16T05:31:45;4.20;;;3.20;;
52934;SDS011;38802;50.198;19.796;2023-07-16T05:34:14;5.70;;;3.10;;
52934;SDS011;38802;50.198;19.796;2023-07-16T05:36:42;4.90;;;3.10;;
52934;SDS011;38802;50.198;19.796;2023-07-16T05:39:13;3.50;;;3.20;;
52934;SDS011;38802;50.198;19.796;2023-07-16T05:41:42;3.60;;;3.30;;
52934;SDS011;38802;50.198;19.796;2023-07-16T05:44:10;7.20;;;3.10;;
52934;SDS011;38802;50.198;19.796;2023-07-16T05:46:38;3.60;;;3.30;;
52934;SDS011;38802;50.198;19.796;2023-07-16T05:49:06;4.10;;;3.30;;
52934;SDS011;38802;50.198;19.796;2023-07-16T05:51:34;5.20;;;3.30;;
52934;SDS011;38802;50.198;19.796;2023-07-16T05:54:02;5.80;;;3.20;;
52934;SDS011;38802;50.198;19.796;2023-07-16T05:56:30;5.90;;;3.10;;
52934;SDS011;38802;50.198;19.796;2023-07-16T05:58:58;3.30;;;2.80;;
52934;SDS011;38802;50.198;19.796;2023-07-16T06:01:26;4.20;;;3.30;;
52934;SDS011;38802;50.198;19.796;2023-07-16T06:03:55;3.90;;;3.50;;
52934;SDS011;38802;50.198;19.796;2023-07-16T06:06:23;4.30;;;3.00;;
52934;SDS011;38802;50.198;19.796;2023-07-16T06:08:51;3.30;;;3.00;;
52934;SDS011;38802;50.198;19.796;2023-07-16T06:11:19;5.10;;;3.10;;
52934;SDS011;38802;50.198;19.796;2023-07-16T06:13:47;2.70;;;2.50;;
52934;SDS011;38802;50.198;19.796;2023-07-16T06:16:15;7.90;;;3.00;;
52934;SDS011;38802;50.198;19.796;2023-07-16T06:18:46;5.00;;;2.90;;
52934;SDS011;38802;50.198;19.796;2023-07-16T06:21:14;4.40;;;2.50;;
52934;SDS011;38802;50.198;19.796;2023-07-16T06:23:42;4.10;;;3.30;;
52934;SDS011;38802;50.198;19.796;2023-07-16T06:26:10;4.20;;;2.90;;
52934;SDS011;38802;50.198;19.796;2023-07-16T06:28:38;3.50;;;2.50;;
52934;SDS011;38802;50.198;19.796;2023-07-16T06:31:06;3.10;;;2.80;;
52934;SDS011;38802;50.198;19.796;2023-07-16T06:33:34;5.90;;;3.10;;
52934;SDS011;38802;50.198;19.796;2023-07-16T06:36:02;3.20;;;2.40;;
52934;SDS011;38802;50.198;19.796;2023-07-16T06:38:31;3.00;;;2.70;;
52934;SDS011;38802;50.198;19.796;2023-07-16T06:40:59;2.90;;;2.70;;
52934;SDS011;38802;50.198;19.796;2023-07-16T06:43:27;4.80;;;3.00;;
52934;SDS011;38802;50.198;19.796;2023-07-16T06:45:56;7.80;;;3.10;;
52934;SDS011;38802;50.198;19.796;2023-07-16T06:48:23;4.10;;;3.00;;
52934;SDS011;38802;50.198;19.796;2023-07-16T06:50:52;3.00;;;2.80;;
52934;SDS011;38802;50.198;19.796;2023-07-16T06:53:20;4.10;;;2.70;;
52934;SDS011;38802;50.198;19.796;2023-07-16T06:55:48;3.60;;;2.90;;
52934;SDS011;38802;50.198;19.796;2023-07-16T06:58:16;2.60;;;2.30;;
52934;SDS011;38802;50.198;19.796;2023-07-16T07:00:44;2.60;;;2.40;;
52934;SDS011;38802;50.198;19.796;2023-07-16T07:03:12;2.80;;;2.60;;
52934;SDS011;38802;50.198;19.796;2023-07-16T07:05:41;2.70;;;2.50;;
52934;SDS011;38802;50.198;19.796;2023-07-16T07:08:09;2.90;;;2.60;;
52934;SDS011;38802;50.198;19.796;2023-07-16T07:10:37;2.90;;;2.70;;
52934;SDS011;38802;50.198;19.796;2023-07-16T07:13:10;4.50;;;2.60;;
52934;SDS011;38802;50.198;19.796;2023-07-16T07:15:38;5.20;;;2.80;;
52934;SDS011;38802;50.198;19.796;2023-07-16T07:18:06;4.60;;;2.90;;
52934;SDS011;38802;50.198;19.796;2023-07-16T07:20:43;4.20;;;2.60;;
52934;SDS011;38802;50.198;19.796;2023-07-16T07:23:11;5.40;;;2.70;;
52934;SDS011;38802;50.198;19.796;2023-07-16T07:25:39;2.70;;;2.40;;
52934;SDS011;38802;50.198;19.796;2023-07-16T07:28:07;5.60;;;2.70;;
52934;SDS011;38802;50.198;19.796;2023-07-16T07:30:36;5.60;;;2.50;;
52934;SDS011;38802;50.198;19.796;2023-07-16T07:33:04;2.70;;;2.40;;
52934;SDS011;38802;50.198;19.796;2023-07-16T07:35:32;4.40;;;2.80;;
52934;SDS011;38802;50.198;19.796;2023-07-16T07:38:00;3.70;;;3.40;;
52934;SDS011;38802;50.198;19.796;2023-07-16T07:40:28;2.50;;;2.30;;
52934;SDS011;38802;50.198;19.796;2023-07-16T07:42:56;2.90;;;2.60;;
52934;SDS011;38802;50.198;19.796;2023-07-16T07:45:24;5.50;;;3.20;;
52934;SDS011;38802;50.198;19.796;2023-07-16T07:47:53;2.70;;;2.50;;
52934;SDS011;38802;50.198;19.796;2023-07-16T07:50:21;5.70;;;3.10;;
52934;SDS011;38802;50.198;19.796;2023-07-16T07:52:50;8.70;;;2.80;;
52934;SDS011;38802;50.198;19.796;2023-07-16T07:55:18;3.40;;;2.70;;
52934;SDS011;38802;50.198;19.796;2023-07-16T07:57:46;6.80;;;3.40;;
52934;SDS011;38802;50.198;19.796;2023-07-16T08:00:14;5.30;;;3.30;;
52934;SDS011;38802;50.198;19.796;2023-07-16T08:02:42;3.50;;;2.90;;
52934;SDS011;38802;50.198;19.796;2023-07-16T08:05:10;6.10;;;2.80;;
52934;SDS011;38802;50.198;19.796;2023-07-16T08:07:38;4.80;;;3.30;;
52934;SDS011;38802;50.198;19.796;2023-07-16T08:10:06;4.40;;;2.90;;
52934;SDS011;38802;50.198;19.796;2023-07-16T08:12:34;8.00;;;2.80;;
52934;SDS011;38802;50.198;19.796;2023-07-16T08:15:03;7.40;;;3.20;;
52934;SDS011;38802;50.198;19.796;2023-07-16T08:17:31;4.70;;;2.80;;
52934;SDS011;38802;50.198;19.796;2023-07-16T08:19:59;6.30;;;2.80;;
52934;SDS011;38802;50.198;19.796;2023-07-16T08:22:27;3.50;;;3.20;;
52934;SDS011;38802;50.198;19.796;2023-07-16T08:24:55;3.30;;;3.00;;
52934;SDS011;38802;50.198;19.796;2023-07-16T08:27:23;3.40;;;2.90;;
52934;SDS011;38802;50.198;19.796;2023-07-16T08:29:51;3.60;;;2.80;;
52934;SDS011;38802;50.198;19.796;2023-07-16T08:32:19;3.70;;;3.30;;
52934;SDS011;38802;50.198;19.796;2023-07-16T08:34:48;5.60;;;3.20;;
52934;SDS011;38802;50.198;19.796;2023-07-16T08:37:17;5.30;;;2.70;;
52934;SDS011;38802;50.198;19.796;2023-07-16T08:39:45;4.00;;;3.20;;
52934;SDS011;38802;50.198;19.796;2023-07-16T08:42:15;3.30;;;3.10;;
52934;SDS011;38802;50.198;19.796;2023-07-16T08:44:43;5.20;;;2.70;;
52934;SDS011;38802;50.198;19.796;2023-07-16T08:47:11;4.70;;;2.80;;
52934;SDS011;38802;50.198;19.796;2023-07-16T08:49:39;4.60;;;2.30;;
52934;SDS011;38802;50.198;19.796;2023-07-16T08:52:08;8.10;;;2.90;;
52934;SDS011;38802;50.198;19.796;2023-07-16T08:54:37;2.90;;;2.70;;
52934;SDS011;38802;50.198;19.796;2023-07-16T08:57:05;7.80;;;3.00;;
52934;SDS011;38802;50.198;19.796;2023-07-16T08:59:33;4.80;;;2.90;;
52934;SDS011;38802;50.198;19.796;2023-07-16T09:02:02;4.60;;;3.00;;
52934;SDS011;38802;50.198;19.796;2023-07-16T09:04:30;4.40;;;3.00;;
52934;SDS011;38802;50.198;19.796;2023-07-16T09:07:00;3.80;;;2.80;;
52934;SDS011;38802;50.198;19.796;2023-07-16T09:09:28;3.30;;;3.00;;
52934;SDS011;38802;50.198;19.796;2023-07-16T09:11:57;4.90;;;2.70;;
52934;SDS011;38802;50.198;19.796;2023-07-16T09:14:25;5.70;;;3.10;;
52934;SDS011;38802;50.198;19.796;2023-07-16T09:16:53;3.80;;;2.90;;
52934;SDS011;38802;50.198;19.796;2023-07-16T09:19:21;7.60;;;3.20;;
52934;SDS011;38802;50.198;19.796;2023-07-16T09:21:49;5.80;;;3.30;;
52934;SDS011;38802;50.198;19.796;2023-07-16T09:24:19;5.10;;;3.20;;
52934;SDS011;38802;50.198;19.796;2023-07-16T09:26:49;5.20;;;3.90;;
52934;SDS011;38802;50.198;19.796;2023-07-16T09:29:19;6.30;;;3.70;;
52934;SDS011;38802;50.198;19.796;2023-07-16T09:31:58;5.10;;;3.80;;
52934;SDS011;38802;50.198;19.796;2023-07-16T09:34:28;4.20;;;3.90;;
52934;SDS011;38802;50.198;19.796;2023-07-16T09:36:58;7.00;;;4.70;;
52934;SDS011;38802;50.198;19.796;2023-07-16T09:39:27;7.70;;;4.20;;
52934;SDS011;38802;50.198;19.796;2023-07-16T09:41:55;5.00;;;4.50;;
52934;SDS011;38802;50.198;19.796;2023-07-16T09:44:26;4.00;;;3.60;;
52934;SDS011;38802;50.198;19.796;2023-07-16T09:46:55;9.20;;;4.60;;
52934;SDS011;38802;50.198;19.796;2023-07-16T09:49:23;7.20;;;4.70;;
52934;SDS011;38802;50.198;19.796;2023-07-16T09:51:52;6.50;;;4.70;;
52934;SDS011;38802;50.198;19.796;2023-07-16T09:54:32;4.90;;;3.80;;
52934;SDS011;38802;50.198;19.796;2023-07-16T09:57:05;5.80;;;4.30;;
52934;SDS011;38802;50.198;19.796;2023-07-16T09:59:35;5.20;;;4.70;;
52934;SDS011;38802;50.198;19.796;2023-07-16T10:02:04;6.50;;;4.60;;
52934;SDS011;38802;50.198;19.796;2023-07-16T10:04:38;6.00;;;4.80;;
52934;SDS011;38802;50.198;19.796;2023-07-16T10:07:19;5.80;;;4.00;;
52934;SDS011;38802;50.198;19.796;2023-07-16T10:09:53;5.40;;;5.00;;
52934;SDS011;38802;50.198;19.796;2023-07-16T10:12:24;5.20;;;4.70;;
52934;SDS011;38802;50.198;19.796;2023-07-16T10:14:54;4.80;;;4.50;;
52934;SDS011;38802;50.198;19.796;2023-07-16T10:17:30;5.30;;;4.80;;
52934;SDS011;38802;50.198;19.796;2023-07-16T10:22:39;6.10;;;5.60;;
52934;SDS011;38802;50.198;19.796;2023-07-16T10:25:21;5.90;;;5.30;;
52934;SDS011;38802;50.198;19.796;2023-07-16T10:27:52;5.90;;;5.40;;
52934;SDS011;38802;50.198;19.796;2023-07-16T10:30:28;6.10;;;5.70;;
52934;SDS011;38802;50.198;19.796;2023-07-16T10:32:58;6.10;;;5.50;;
52934;SDS011;38802;50.198;19.796;2023-07-16T10:35:30;6.50;;;6.00;;
52934;SDS011;38802;50.198;19.796;2023-07-16T10:37:58;6.80;;;6.10;;
52934;SDS011;38802;50.198;19.796;2023-07-16T10:40:27;6.30;;;5.80;;
52934;SDS011;38802;50.198;19.796;2023-07-16T10:42:55;7.40;;;5.70;;
52934;SDS011;38802;50.198;19.796;2023-07-16T10:45:23;8.60;;;5.60;;
52934;SDS011;38802;50.198;19.796;2023-07-16T10:47:52;7.30;;;6.10;;
52934;SDS011;38802;50.198;19.796;2023-07-16T10:50:22;7.90;;;5.90;;
52934;SDS011;38802;50.198;19.796;2023-07-16T10:52:54;6.60;;;6.10;;
52934;SDS011;38802;50.198;19.796;2023-07-16T10:55:25;7.20;;;6.50;;
52934;SDS011;38802;50.198;19.796;2023-07-16T10:57:55;7.80;;;6.70;;
52934;SDS011;38802;50.198;19.796;2023-07-16T11:00:31;7.10;;;6.50;;
52934;SDS011;38802;50.198;19.796;2023-07-16T11:03:00;6.70;;;6.20;;
52934;SDS011;38802;50.198;19.796;2023-07-16T11:05:28;6.00;;;5.50;;
52934;SDS011;38802;50.198;19.796;2023-07-16T11:07:56;6.90;;;6.40;;
52934;SDS011;38802;50.198;19.796;2023-07-16T11:10:28;7.20;;;6.40;;
52934;SDS011;38802;50.198;19.796;2023-07-16T11:12:58;8.30;;;6.50;;
52934;SDS011;38802;50.198;19.796;2023-07-16T11:15:34;8.60;;;7.90;;
52934;SDS011;38802;50.198;19.796;2023-07-16T11:18:03;8.90;;;8.20;;
52934;SDS011;38802;50.198;19.796;2023-07-16T11:20:31;9.00;;;8.30;;
52934;SDS011;38802;50.198;19.796;2023-07-16T11:22:59;8.50;;;7.80;;
52934;SDS011;38802;50.198;19.796;2023-07-16T11:25:28;7.90;;;7.30;;
52934;SDS011;38802;50.198;19.796;2023-07-16T11:27:57;8.20;;;7.50;;
52934;SDS011;38802;50.198;19.796;2023-07-16T11:30:25;8.90;;;8.20;;
52934;SDS011;38802;50.198;19.796;2023-07-16T11:33:35;9.10;;;8.00;;
52934;SDS011;38802;50.198;19.796;2023-07-16T11:36:04;9.00;;;8.10;;
52934;SDS011;38802;50.198;19.796;2023-07-16T11:38:35;8.30;;;7.60;;
52934;SDS011;38802;50.198;19.796;2023-07-16T11:41:04;8.90;;;8.30;;
52934;SDS011;38802;50.198;19.796;2023-07-16T11:43:35;8.90;;;8.20;;
52934;SDS011;38802;50.198;19.796;2023-07-16T11:46:05;8.90;;;8.20;;
52934;SDS011;38802;50.198;19.796;2023-07-16T11:48:44;9.50;;;8.50;;
52934;SDS011;38802;50.198;19.796;2023-07-16T11:51:23;15.90;;;9.60;;
52934;SDS011;38802;50.198;19.796;2023-07-16T11:53:51;10.00;;;9.00;;
52934;SDS011;38802;50.198;19.796;2023-07-16T11:56:26;10.30;;;8.90;;
52934;SDS011;38802;50.198;19.796;2023-07-16T11:58:54;9.20;;;8.60;;
52934;SDS011;38802;50.198;19.796;2023-07-16T12:01:22;9.20;;;8.40;;
52934;SDS011;38802;50.198;19.796;2023-07-16T12:03:54;9.30;;;8.60;;
52934;SDS011;38802;50.198;19.796;2023-07-16T12:06:22;9.80;;;9.10;;
52934;SDS011;38802;50.198;19.796;2023-07-16T12:08:54;9.60;;;8.70;;
52934;SDS011;38802;50.198;19.796;2023-07-16T12:11:22;10.00;;;9.20;;
52934;SDS011;38802;50.198;19.796;2023-07-16T12:13:50;10.40;;;9.60;;
52934;SDS011;38802;50.198;19.796;2023-07-16T12:16:18;9.60;;;9.00;;
52934;SDS011;38802;50.198;19.796;2023-07-16T12:18:47;10.10;;;9.10;;
52934;SDS011;38802;50.198;19.796;2023-07-16T12:21:15;10.30;;;9.30;;
52934;SDS011;38802;50.198;19.796;2023-07-16T12:23:43;10.30;;;9.50;;
52934;SDS011;38802;50.198;19.796;2023-07-16T12:26:11;9.30;;;8.20;;
52934;SDS011;38802;50.198;19.796;2023-07-16T12:28:40;9.80;;;9.10;;
52934;SDS011;38802;50.198;19.796;2023-07-16T12:31:09;10.80;;;9.90;;
52934;SDS011;38802;50.198;19.796;2023-07-16T12:33:37;9.80;;;9.10;;
52934;SDS011;38802;50.198;19.796;2023-07-16T12:36:05;12.80;;;9.60;;
52934;SDS011;38802;50.198;19.796;2023-07-16T12:38:33;10.50;;;9.50;;
52934;SDS011;38802;50.198;19.796;2023-07-16T12:41:01;10.30;;;9.60;;
52934;SDS011;38802;50.198;19.796;2023-07-16T12:43:28;9.70;;;8.90;;
52934;SDS011;38802;50.198;19.796;2023-07-16T12:46:04;9.30;;;8.40;;
52934;SDS011;38802;50.198;19.796;2023-07-16T12:48:32;9.00;;;8.40;;
52934;SDS011;38802;50.198;19.796;2023-07-16T12:51:19;9.80;;;8.70;;
52934;SDS011;38802;50.198;19.796;2023-07-16T12:53:47;9.90;;;9.20;;
52934;SDS011;38802;50.198;19.796;2023-07-16T12:56:15;13.90;;;9.60;;
52934;SDS011;38802;50.198;19.796;2023-07-16T12:58:44;10.30;;;9.40;;
52934;SDS011;38802;50.198;19.796;2023-07-16T13:01:12;9.70;;;9.00;;
52934;SDS011;38802;50.198;19.796;2023-07-16T13:03:40;8.60;;;8.00;;
52934;SDS011;38802;50.198;19.796;2023-07-16T13:06:08;9.30;;;8.60;;
52934;SDS011;38802;50.198;19.796;2023-07-16T13:08:36;9.50;;;8.80;;
52934;SDS011;38802;50.198;19.796;2023-07-16T13:11:04;8.50;;;8.00;;
52934;SDS011;38802;50.198;19.796;2023-07-16T13:13:32;7.50;;;7.00;;
52934;SDS011;38802;50.198;19.796;2023-07-16T13:16:00;8.00;;;7.30;;
52934;SDS011;38802;50.198;19.796;2023-07-16T13:18:28;7.40;;;6.80;;
52934;SDS011;38802;50.198;19.796;2023-07-16T13:20:56;7.10;;;6.40;;
52934;SDS011;38802;50.198;19.796;2023-07-16T13:23:25;7.70;;;6.70;;
52934;SDS011;38802;50.198;19.796;2023-07-16T13:25:53;7.10;;;6.60;;
52934;SDS011;38802;50.198;19.796;2023-07-16T13:28:21;8.80;;;6.50;;
52934;SDS011;38802;50.198;19.796;2023-07-16T13:30:50;8.10;;;7.10;;
52934;SDS011;38802;50.198;19.796;2023-07-16T13:33:24;8.00;;;7.20;;
52934;SDS011;38802;50.198;19.796;2023-07-16T13:35:52;7.70;;;6.90;;
52934;SDS011;38802;50.198;19.796;2023-07-16T13:38:20;9.50;;;6.00;;
52934;SDS011;38802;50.198;19.796;2023-07-16T13:40:48;8.50;;;7.20;;
52934;SDS011;38802;50.198;19.796;2023-07-16T13:43:16;7.50;;;6.30;;
52934;SDS011;38802;50.198;19.796;2023-07-16T13:45:44;6.60;;;6.10;;
52934;SDS011;38802;50.198;19.796;2023-07-16T13:48:12;7.40;;;6.60;;
52934;SDS011;38802;50.198;19.796;2023-07-16T13:50:40;7.40;;;6.80;;
52934;SDS011;38802;50.198;19.796;2023-07-16T13:53:08;8.20;;;6.70;;
52934;SDS011;38802;50.198;19.796;2023-07-16T13:55:36;7.40;;;6.70;;
52934;SDS011;38802;50.198;19.796;2023-07-16T13:58:04;10.80;;;7.60;;
52934;SDS011;38802;50.198;19.796;2023-07-16T14:00:32;8.90;;;7.30;;
52934;SDS011;38802;50.198;19.796;2023-07-16T14:03:00;7.70;;;7.00;;
52934;SDS011;38802;50.198;19.796;2023-07-16T14:05:29;9.60;;;8.30;;
52934;SDS011;38802;50.198;19.796;2023-07-16T14:07:57;8.60;;;7.30;;
52934;SDS011;38802;50.198;19.796;2023-07-16T14:10:26;8.30;;;6.70;;
52934;SDS011;38802;50.198;19.796;2023-07-16T14:12:54;7.90;;;7.10;;
52934;SDS011;38802;50.198;19.796;2023-07-16T14:15:23;8.00;;;7.30;;
52934;SDS011;38802;50.198;19.796;2023-07-16T14:17:51;7.50;;;6.90;;
52934;SDS011;38802;50.198;19.796;2023-07-16T14:20:19;7.40;;;6.90;;
52934;SDS011;38802;50.198;19.796;2023-07-16T14:22:47;7.80;;;7.10;;
52934;SDS011;38802;50.198;19.796;2023-07-16T14:25:15;8.10;;;7.30;;
52934;SDS011;38802;50.198;19.796;2023-07-16T14:27:43;8.30;;;7.60;;
52934;SDS011;38802;50.198;19.796;2023-07-16T14:30:11;7.60;;;7.00;;
52934;SDS011;38802;50.198;19.796;2023-07-16T14:32:39;8.80;;;6.90;;
52934;SDS011;38802;50.198;19.796;2023-07-16T14:35:10;8.50;;;6.90;;
52934;SDS011;38802;50.198;19.796;2023-07-16T14:37:57;7.80;;;6.90;;
52934;SDS011;38802;50.198;19.796;2023-07-16T14:40:33;8.50;;;7.80;;
52934;SDS011;38802;50.198;19.796;2023-07-16T14:43:01;7.50;;;6.70;;
52934;SDS011;38802;50.198;19.796;2023-07-16T14:45:31;6.90;;;6.40;;
52934;SDS011;38802;50.198;19.796;2023-07-16T14:48:00;8.20;;;7.50;;
52934;SDS011;38802;50.198;19.796;2023-07-16T14:50:29;7.90;;;7.10;;
52934;SDS011;38802;50.198;19.796;2023-07-16T14:52:57;7.30;;;6.70;;